sensor_id;sensor_type;location;lat;lon;timestamp;P1;durP1;ratioP1;P2;durP2;ratioP2
70545;SDS011;58098;51.680;5.134;2023-04-09T00:01:22;31.77;;;21.77;;
70545;SDS011;58098;51.680;5.134;2023-04-09T00:03:47;33.23;;;21.93;;
70545;SDS011;58098;51.680;5.134;2023-04-09T00:06:12;33.97;;;21.63;;
70545;SDS011;58098;51.680;5.134;2023-04-09T00:08:38;36.87;;;22.40;;
70545;SDS011;58098;51.680;5.134;2023-04-09T00:11:03;33.33;;;22.47;;
70545;SDS011;58098;51.680;5.134;2023-04-09T00:13:28;33.03;;;21.40;;
70545;SDS011;58098;51.680;5.134;2023-04-09T00:15:53;36.77;;;22.63;;
70545;SDS011;58098;51.680;5.134;2023-04-09T00:18:19;34.27;;;22.50;;
70545;SDS011;58098;51.680;5.134;2023-04-09T00:20:44;33.90;;;22.17;;
70545;SDS011;58098;51.680;5.134;2023-04-09T00:23:09;33.50;;;22.50;;
70545;SDS011;58098;51.680;5.134;2023-04-09T00:25:34;37.37;;;23.43;;
70545;SDS011;58098;51.680;5.134;2023-04-09T00:28:00;32.67;;;21.90;;
70545;SDS011;58098;51.680;5.134;2023-04-09T00:30:27;34.53;;;22.20;;
70545;SDS011;58098;51.680;5.134;2023-04-09T00:32:52;35.15;;;22.17;;
70545;SDS011;58098;51.680;5.134;2023-04-09T00:35:17;32.27;;;21.57;;
70545;SDS011;58098;51.680;5.134;2023-04-09T00:37:42;35.63;;;22.23;;
70545;SDS011;58098;51.680;5.134;2023-04-09T00:40:08;34.93;;;22.40;;
70545;SDS011;58098;51.680;5.134;2023-04-09T00:42:34;34.92;;;22.52;;
70545;SDS011;58098;51.680;5.134;2023-04-09T00:44:59;36.33;;;21.97;;
70545;SDS011;58098;51.680;5.134;2023-04-09T00:47:28;36.23;;;21.90;;
70545;SDS011;58098;51.680;5.134;2023-04-09T00:49:54;37.17;;;22.10;;
70545;SDS011;58098;51.680;5.134;2023-04-09T00:52:19;31.13;;;20.77;;
70545;SDS011;58098;51.680;5.134;2023-04-09T00:54:45;33.20;;;20.80;;
70545;SDS011;58098;51.680;5.134;2023-04-09T00:57:10;29.67;;;19.47;;
70545;SDS011;58098;51.680;5.134;2023-04-09T00:59:36;32.67;;;21.67;;
70545;SDS011;58098;51.680;5.134;2023-04-09T01:02:02;35.55;;;22.15;;
70545;SDS011;58098;51.680;5.134;2023-04-09T01:04:27;32.90;;;22.37;;
70545;SDS011;58098;51.680;5.134;2023-04-09T01:07:38;32.10;;;21.00;;
70545;SDS011;58098;51.680;5.134;2023-04-09T01:09:39;34.78;;;22.13;;
70545;SDS011;58098;51.680;5.134;2023-04-09T01:12:21;29.70;;;19.50;;
70545;SDS011;58098;51.680;5.134;2023-04-09T01:17:16;32.63;;;20.98;;
70545;SDS011;58098;51.680;5.134;2023-04-09T01:22:21;31.73;;;20.35;;
70545;SDS011;58098;51.680;5.134;2023-04-09T01:24:58;32.15;;;21.48;;
70545;SDS011;58098;51.680;5.134;2023-04-09T01:27:25;33.60;;;21.73;;
70545;SDS011;58098;51.680;5.134;2023-04-09T01:29:53;31.55;;;21.02;;
70545;SDS011;58098;51.680;5.134;2023-04-09T01:32:18;30.70;;;20.23;;
70545;SDS011;58098;51.680;5.134;2023-04-09T01:34:45;32.35;;;20.15;;
70545;SDS011;58098;51.680;5.134;2023-04-09T01:37:11;34.13;;;20.85;;
70545;SDS011;58098;51.680;5.134;2023-04-09T01:39:37;39.63;;;21.95;;
70545;SDS011;58098;51.680;5.134;2023-04-09T01:42:03;37.20;;;21.73;;
70545;SDS011;58098;51.680;5.134;2023-04-09T01:44:29;37.05;;;22.83;;
70545;SDS011;58098;51.680;5.134;2023-04-09T01:46:54;35.10;;;23.13;;
70545;SDS011;58098;51.680;5.134;2023-04-09T01:49:21;35.00;;;22.35;;
70545;SDS011;58098;51.680;5.134;2023-04-09T01:51:47;36.80;;;22.70;;
70545;SDS011;58098;51.680;5.134;2023-04-09T01:54:12;37.33;;;23.07;;
70545;SDS011;58098;51.680;5.134;2023-04-09T01:56:44;36.97;;;22.37;;
70545;SDS011;58098;51.680;5.134;2023-04-09T01:59:09;36.47;;;22.88;;
70545;SDS011;58098;51.680;5.134;2023-04-09T02:01:37;36.53;;;21.33;;
70545;SDS011;58098;51.680;5.134;2023-04-09T02:04:03;38.58;;;22.75;;
70545;SDS011;58098;51.680;5.134;2023-04-09T02:06:39;37.53;;;22.63;;
70545;SDS011;58098;51.680;5.134;2023-04-09T02:09:07;39.93;;;22.60;;
70545;SDS011;58098;51.680;5.134;2023-04-09T02:11:33;36.13;;;20.27;;
70545;SDS011;58098;51.680;5.134;2023-04-09T02:13:58;36.40;;;22.48;;
70545;SDS011;58098;51.680;5.134;2023-04-09T02:16:25;40.13;;;22.80;;
70545;SDS011;58098;51.680;5.134;2023-04-09T02:18:54;37.83;;;22.80;;
70545;SDS011;58098;51.680;5.134;2023-04-09T02:21:25;40.10;;;22.60;;
70545;SDS011;58098;51.680;5.134;2023-04-09T02:23:51;38.15;;;22.58;;
70545;SDS011;58098;51.680;5.134;2023-04-09T02:26:16;40.70;;;22.60;;
70545;SDS011;58098;51.680;5.134;2023-04-09T02:28:41;39.50;;;23.87;;
70545;SDS011;58098;51.680;5.134;2023-04-09T02:31:06;39.67;;;23.20;;
70545;SDS011;58098;51.680;5.134;2023-04-09T02:33:32;36.20;;;22.37;;
70545;SDS011;58098;51.680;5.134;2023-04-09T02:35:57;38.92;;;22.23;;
70545;SDS011;58098;51.680;5.134;2023-04-09T02:38:23;40.43;;;22.80;;
70545;SDS011;58098;51.680;5.134;2023-04-09T02:40:48;36.83;;;21.20;;
70545;SDS011;58098;51.680;5.134;2023-04-09T02:43:13;38.77;;;22.97;;
70545;SDS011;58098;51.680;5.134;2023-04-09T02:45:38;39.93;;;23.30;;
70545;SDS011;58098;51.680;5.134;2023-04-09T02:48:03;39.50;;;22.93;;
70545;SDS011;58098;51.680;5.134;2023-04-09T02:50:29;37.63;;;22.30;;
70545;SDS011;58098;51.680;5.134;2023-04-09T02:52:54;36.83;;;21.73;;
70545;SDS011;58098;51.680;5.134;2023-04-09T02:55:19;37.37;;;22.30;;
70545;SDS011;58098;51.680;5.134;2023-04-09T02:57:45;34.00;;;21.20;;
70545;SDS011;58098;51.680;5.134;2023-04-09T03:00:10;35.73;;;21.03;;
70545;SDS011;58098;51.680;5.134;2023-04-09T03:02:35;37.57;;;21.70;;
70545;SDS011;58098;51.680;5.134;2023-04-09T03:05:01;37.13;;;22.57;;
70545;SDS011;58098;51.680;5.134;2023-04-09T03:07:26;37.63;;;22.33;;
70545;SDS011;58098;51.680;5.134;2023-04-09T03:09:51;40.07;;;22.50;;
70545;SDS011;58098;51.680;5.134;2023-04-09T03:12:16;38.27;;;21.90;;
70545;SDS011;58098;51.680;5.134;2023-04-09T03:14:42;35.57;;;21.30;;
70545;SDS011;58098;51.680;5.134;2023-04-09T03:17:07;38.40;;;22.50;;
70545;SDS011;58098;51.680;5.134;2023-04-09T03:19:32;35.90;;;21.93;;
70545;SDS011;58098;51.680;5.134;2023-04-09T03:21:57;37.87;;;21.00;;
70545;SDS011;58098;51.680;5.134;2023-04-09T03:24:22;41.77;;;23.40;;
70545;SDS011;58098;51.680;5.134;2023-04-09T03:26:47;40.17;;;23.20;;
70545;SDS011;58098;51.680;5.134;2023-04-09T03:29:13;39.65;;;23.23;;
70545;SDS011;58098;51.680;5.134;2023-04-09T03:31:38;40.47;;;22.87;;
70545;SDS011;58098;51.680;5.134;2023-04-09T03:34:03;41.13;;;22.40;;
70545;SDS011;58098;51.680;5.134;2023-04-09T03:36:29;42.43;;;22.13;;
70545;SDS011;58098;51.680;5.134;2023-04-09T03:38:55;45.37;;;23.43;;
70545;SDS011;58098;51.680;5.134;2023-04-09T03:41:20;44.57;;;23.20;;
70545;SDS011;58098;51.680;5.134;2023-04-09T03:43:45;42.23;;;23.37;;
70545;SDS011;58098;51.680;5.134;2023-04-09T03:46:11;38.20;;;20.83;;
70545;SDS011;58098;51.680;5.134;2023-04-09T03:48:36;41.33;;;23.25;;
70545;SDS011;58098;51.680;5.134;2023-04-09T03:51:01;43.13;;;24.00;;
70545;SDS011;58098;51.680;5.134;2023-04-09T03:53:26;43.33;;;23.77;;
70545;SDS011;58098;51.680;5.134;2023-04-09T03:55:52;39.27;;;22.27;;
70545;SDS011;58098;51.680;5.134;2023-04-09T03:58:17;43.60;;;23.20;;
70545;SDS011;58098;51.680;5.134;2023-04-09T04:00:42;42.43;;;24.37;;
70545;SDS011;58098;51.680;5.134;2023-04-09T04:03:07;46.13;;;25.53;;
70545;SDS011;58098;51.680;5.134;2023-04-09T04:05:33;44.97;;;25.20;;
70545;SDS011;58098;51.680;5.134;2023-04-09T04:07:58;47.07;;;24.70;;
70545;SDS011;58098;51.680;5.134;2023-04-09T04:10:23;45.70;;;23.87;;
70545;SDS011;58098;51.680;5.134;2023-04-09T04:12:48;47.63;;;24.17;;
70545;SDS011;58098;51.680;5.134;2023-04-09T04:15:13;43.50;;;23.57;;
70545;SDS011;58098;51.680;5.134;2023-04-09T04:17:39;43.17;;;23.90;;
70545;SDS011;58098;51.680;5.134;2023-04-09T04:20:04;46.47;;;24.00;;
70545;SDS011;58098;51.680;5.134;2023-04-09T04:22:29;46.85;;;24.77;;
70545;SDS011;58098;51.680;5.134;2023-04-09T04:24:54;47.93;;;24.73;;
70545;SDS011;58098;51.680;5.134;2023-04-09T04:27:20;47.83;;;24.70;;
70545;SDS011;58098;51.680;5.134;2023-04-09T04:29:45;49.87;;;25.50;;
70545;SDS011;58098;51.680;5.134;2023-04-09T04:32:10;47.00;;;24.57;;
70545;SDS011;58098;51.680;5.134;2023-04-09T04:34:35;51.43;;;23.63;;
70545;SDS011;58098;51.680;5.134;2023-04-09T04:37:00;42.57;;;23.63;;
70545;SDS011;58098;51.680;5.134;2023-04-09T04:39:26;48.13;;;25.43;;
70545;SDS011;58098;51.680;5.134;2023-04-09T04:41:51;50.00;;;25.67;;
70545;SDS011;58098;51.680;5.134;2023-04-09T04:44:16;48.53;;;25.73;;
70545;SDS011;58098;51.680;5.134;2023-04-09T04:46:41;54.77;;;26.60;;
70545;SDS011;58098;51.680;5.134;2023-04-09T04:49:06;54.47;;;27.37;;
70545;SDS011;58098;51.680;5.134;2023-04-09T04:51:31;56.63;;;28.00;;
70545;SDS011;58098;51.680;5.134;2023-04-09T04:53:57;51.00;;;25.70;;
70545;SDS011;58098;51.680;5.134;2023-04-09T04:56:22;62.80;;;28.57;;
70545;SDS011;58098;51.680;5.134;2023-04-09T04:58:47;59.97;;;28.67;;
70545;SDS011;58098;51.680;5.134;2023-04-09T05:01:12;66.33;;;29.10;;
70545;SDS011;58098;51.680;5.134;2023-04-09T05:03:37;63.57;;;29.13;;
70545;SDS011;58098;51.680;5.134;2023-04-09T05:06:03;61.47;;;28.73;;
70545;SDS011;58098;51.680;5.134;2023-04-09T05:08:28;65.33;;;30.30;;
70545;SDS011;58098;51.680;5.134;2023-04-09T05:10:54;63.57;;;29.87;;
70545;SDS011;58098;51.680;5.134;2023-04-09T05:13:22;66.38;;;27.58;;
70545;SDS011;58098;51.680;5.134;2023-04-09T05:15:47;69.13;;;32.90;;
70545;SDS011;58098;51.680;5.134;2023-04-09T05:18:13;61.83;;;29.43;;
70545;SDS011;58098;51.680;5.134;2023-04-09T05:20:38;64.53;;;29.77;;
70545;SDS011;58098;51.680;5.134;2023-04-09T05:23:03;64.70;;;29.30;;
70545;SDS011;58098;51.680;5.134;2023-04-09T05:25:28;65.57;;;31.63;;
70545;SDS011;58098;51.680;5.134;2023-04-09T05:27:53;66.57;;;31.73;;
70545;SDS011;58098;51.680;5.134;2023-04-09T05:30:19;63.93;;;29.93;;
70545;SDS011;58098;51.680;5.134;2023-04-09T05:32:45;58.10;;;27.87;;
70545;SDS011;58098;51.680;5.134;2023-04-09T05:35:10;58.90;;;27.67;;
70545;SDS011;58098;51.680;5.134;2023-04-09T05:37:36;54.80;;;26.87;;
70545;SDS011;58098;51.680;5.134;2023-04-09T05:40:01;54.27;;;28.20;;
70545;SDS011;58098;51.680;5.134;2023-04-09T05:42:26;52.33;;;27.60;;
70545;SDS011;58098;51.680;5.134;2023-04-09T05:44:51;57.70;;;29.37;;
70545;SDS011;58098;51.680;5.134;2023-04-09T05:47:17;53.53;;;27.50;;
70545;SDS011;58098;51.680;5.134;2023-04-09T05:49:42;55.20;;;27.13;;
70545;SDS011;58098;51.680;5.134;2023-04-09T05:52:07;49.77;;;25.63;;
70545;SDS011;58098;51.680;5.134;2023-04-09T05:54:32;51.87;;;26.80;;
70545;SDS011;58098;51.680;5.134;2023-04-09T05:56:57;51.67;;;25.43;;
70545;SDS011;58098;51.680;5.134;2023-04-09T05:59:23;48.60;;;25.10;;
70545;SDS011;58098;51.680;5.134;2023-04-09T06:01:48;47.93;;;23.93;;
70545;SDS011;58098;51.680;5.134;2023-04-09T06:04:13;49.27;;;24.47;;
70545;SDS011;58098;51.680;5.134;2023-04-09T06:06:38;50.43;;;25.63;;
70545;SDS011;58098;51.680;5.134;2023-04-09T06:09:03;49.42;;;24.48;;
70545;SDS011;58098;51.680;5.134;2023-04-09T06:11:29;48.20;;;24.17;;
70545;SDS011;58098;51.680;5.134;2023-04-09T06:13:54;46.63;;;22.70;;
70545;SDS011;58098;51.680;5.134;2023-04-09T06:16:19;47.90;;;24.97;;
70545;SDS011;58098;51.680;5.134;2023-04-09T06:18:45;45.50;;;23.20;;
70545;SDS011;58098;51.680;5.134;2023-04-09T06:21:11;50.63;;;25.45;;
70545;SDS011;58098;51.680;5.134;2023-04-09T06:23:37;45.42;;;24.25;;
70545;SDS011;58098;51.680;5.134;2023-04-09T06:26:02;45.30;;;23.13;;
70545;SDS011;58098;51.680;5.134;2023-04-09T06:28:28;47.93;;;24.23;;
70545;SDS011;58098;51.680;5.134;2023-04-09T06:30:53;47.97;;;24.67;;
70545;SDS011;58098;51.680;5.134;2023-04-09T06:33:19;45.67;;;24.60;;
70545;SDS011;58098;51.680;5.134;2023-04-09T06:35:44;42.70;;;22.10;;
70545;SDS011;58098;51.680;5.134;2023-04-09T06:38:09;43.17;;;23.13;;
70545;SDS011;58098;51.680;5.134;2023-04-09T06:40:38;45.70;;;23.43;;
70545;SDS011;58098;51.680;5.134;2023-04-09T06:43:03;46.88;;;24.40;;
70545;SDS011;58098;51.680;5.134;2023-04-09T06:45:29;45.33;;;23.33;;
70545;SDS011;58098;51.680;5.134;2023-04-09T06:47:55;42.40;;;23.23;;
70545;SDS011;58098;51.680;5.134;2023-04-09T06:50:20;42.97;;;23.50;;
70545;SDS011;58098;51.680;5.134;2023-04-09T06:52:45;45.27;;;23.67;;
70545;SDS011;58098;51.680;5.134;2023-04-09T06:55:11;45.17;;;23.97;;
70545;SDS011;58098;51.680;5.134;2023-04-09T06:57:36;44.53;;;23.60;;
70545;SDS011;58098;51.680;5.134;2023-04-09T07:00:02;49.35;;;24.77;;
70545;SDS011;58098;51.680;5.134;2023-04-09T07:02:28;48.63;;;24.83;;
70545;SDS011;58098;51.680;5.134;2023-04-09T07:04:53;46.27;;;24.03;;
70545;SDS011;58098;51.680;5.134;2023-04-09T07:07:18;47.57;;;24.83;;
70545;SDS011;58098;51.680;5.134;2023-04-09T07:09:44;45.15;;;24.80;;
70545;SDS011;58098;51.680;5.134;2023-04-09T07:12:10;46.47;;;23.83;;
70545;SDS011;58098;51.680;5.134;2023-04-09T07:14:35;49.93;;;25.17;;
70545;SDS011;58098;51.680;5.134;2023-04-09T07:17:00;44.57;;;23.83;;
70545;SDS011;58098;51.680;5.134;2023-04-09T07:19:25;44.33;;;24.57;;
70545;SDS011;58098;51.680;5.134;2023-04-09T07:21:51;48.13;;;24.77;;
70545;SDS011;58098;51.680;5.134;2023-04-09T07:24:16;47.27;;;24.60;;
70545;SDS011;58098;51.680;5.134;2023-04-09T07:26:41;46.07;;;24.47;;
70545;SDS011;58098;51.680;5.134;2023-04-09T07:29:06;44.67;;;24.05;;
70545;SDS011;58098;51.680;5.134;2023-04-09T07:31:31;47.90;;;25.07;;
70545;SDS011;58098;51.680;5.134;2023-04-09T07:33:57;49.05;;;25.50;;
70545;SDS011;58098;51.680;5.134;2023-04-09T07:36:22;45.83;;;24.20;;
70545;SDS011;58098;51.680;5.134;2023-04-09T07:38:47;47.03;;;25.97;;
70545;SDS011;58098;51.680;5.134;2023-04-09T07:41:12;49.17;;;25.70;;
70545;SDS011;58098;51.680;5.134;2023-04-09T07:43:38;47.30;;;24.33;;
70545;SDS011;58098;51.680;5.134;2023-04-09T07:46:03;49.10;;;26.10;;
70545;SDS011;58098;51.680;5.134;2023-04-09T07:48:28;45.70;;;25.33;;
70545;SDS011;58098;51.680;5.134;2023-04-09T07:50:53;47.83;;;26.17;;
70545;SDS011;58098;51.680;5.134;2023-04-09T07:53:19;45.37;;;24.73;;
70545;SDS011;58098;51.680;5.134;2023-04-09T07:55:44;49.60;;;25.53;;
70545;SDS011;58098;51.680;5.134;2023-04-09T07:58:11;44.15;;;24.52;;
70545;SDS011;58098;51.680;5.134;2023-04-09T08:00:36;47.30;;;26.00;;
70545;SDS011;58098;51.680;5.134;2023-04-09T08:03:01;47.03;;;27.00;;
70545;SDS011;58098;51.680;5.134;2023-04-09T08:05:27;51.17;;;28.08;;
70545;SDS011;58098;51.680;5.134;2023-04-09T08:07:53;47.67;;;25.70;;
70545;SDS011;58098;51.680;5.134;2023-04-09T08:10:18;50.10;;;27.33;;
70545;SDS011;58098;51.680;5.134;2023-04-09T08:12:43;45.90;;;25.90;;
70545;SDS011;58098;51.680;5.134;2023-04-09T08:15:09;49.83;;;28.13;;
70545;SDS011;58098;51.680;5.134;2023-04-09T08:17:34;50.20;;;27.42;;
70545;SDS011;58098;51.680;5.134;2023-04-09T08:22:53;46.80;;;25.43;;
70545;SDS011;58098;51.680;5.134;2023-04-09T08:25:18;46.17;;;25.40;;
70545;SDS011;58098;51.680;5.134;2023-04-09T08:27:43;44.63;;;26.30;;
70545;SDS011;58098;51.680;5.134;2023-04-09T08:30:09;51.53;;;27.40;;
70545;SDS011;58098;51.680;5.134;2023-04-09T08:32:34;46.22;;;26.02;;
70545;SDS011;58098;51.680;5.134;2023-04-09T08:35:00;46.47;;;25.93;;
70545;SDS011;58098;51.680;5.134;2023-04-09T08:37:25;48.77;;;26.60;;
70545;SDS011;58098;51.680;5.134;2023-04-09T08:39:50;45.40;;;25.73;;
70545;SDS011;58098;51.680;5.134;2023-04-09T08:42:16;44.90;;;26.00;;
70545;SDS011;58098;51.680;5.134;2023-04-09T08:44:41;46.27;;;25.87;;
70545;SDS011;58098;51.680;5.134;2023-04-09T08:47:07;41.63;;;24.93;;
70545;SDS011;58098;51.680;5.134;2023-04-09T08:49:34;44.70;;;26.67;;
70545;SDS011;58098;51.680;5.134;2023-04-09T08:51:59;42.87;;;25.73;;
70545;SDS011;58098;51.680;5.134;2023-04-09T08:54:24;44.78;;;26.90;;
70545;SDS011;58098;51.680;5.134;2023-04-09T08:56:50;45.30;;;26.27;;
70545;SDS011;58098;51.680;5.134;2023-04-09T08:59:15;45.73;;;26.23;;
70545;SDS011;58098;51.680;5.134;2023-04-09T09:01:42;44.47;;;25.50;;
70545;SDS011;58098;51.680;5.134;2023-04-09T09:04:08;44.43;;;26.53;;
70545;SDS011;58098;51.680;5.134;2023-04-09T09:06:37;46.83;;;27.30;;
70545;SDS011;58098;51.680;5.134;2023-04-09T09:09:03;43.08;;;27.23;;
70545;SDS011;58098;51.680;5.134;2023-04-09T09:11:29;47.17;;;28.73;;
70545;SDS011;58098;51.680;5.134;2023-04-09T09:14:01;46.30;;;28.10;;
70545;SDS011;58098;51.680;5.134;2023-04-09T09:16:27;45.20;;;27.58;;
70545;SDS011;58098;51.680;5.134;2023-04-09T09:18:53;45.80;;;28.90;;
70545;SDS011;58098;51.680;5.134;2023-04-09T09:21:19;47.22;;;27.77;;
70545;SDS011;58098;51.680;5.134;2023-04-09T09:23:45;47.33;;;28.93;;
70545;SDS011;58098;51.680;5.134;2023-04-09T09:26:20;49.72;;;28.38;;
70545;SDS011;58098;51.680;5.134;2023-04-09T09:28:46;43.70;;;28.13;;
70545;SDS011;58098;51.680;5.134;2023-04-09T09:31:12;44.20;;;27.70;;
70545;SDS011;58098;51.680;5.134;2023-04-09T09:33:38;47.53;;;29.97;;
70545;SDS011;58098;51.680;5.134;2023-04-09T09:36:03;45.57;;;28.97;;
70545;SDS011;58098;51.680;5.134;2023-04-09T09:38:28;47.20;;;28.80;;
70545;SDS011;58098;51.680;5.134;2023-04-09T09:40:54;50.20;;;30.23;;
70545;SDS011;58098;51.680;5.134;2023-04-09T09:43:19;49.03;;;29.20;;
70545;SDS011;58098;51.680;5.134;2023-04-09T09:45:45;43.97;;;28.90;;
70545;SDS011;58098;51.680;5.134;2023-04-09T09:48:10;48.77;;;29.50;;
70545;SDS011;58098;51.680;5.134;2023-04-09T09:50:39;46.20;;;28.70;;
70545;SDS011;58098;51.680;5.134;2023-04-09T09:53:08;45.78;;;28.73;;
70545;SDS011;58098;51.680;5.134;2023-04-09T09:55:36;42.30;;;26.27;;
70545;SDS011;58098;51.680;5.134;2023-04-09T09:58:04;40.60;;;26.45;;
70545;SDS011;58098;51.680;5.134;2023-04-09T10:00:31;45.00;;;29.70;;
70545;SDS011;58098;51.680;5.134;2023-04-09T10:02:58;42.05;;;27.58;;
70545;SDS011;58098;51.680;5.134;2023-04-09T10:05:27;41.10;;;26.80;;
70545;SDS011;58098;51.680;5.134;2023-04-09T10:07:53;44.83;;;27.92;;
70545;SDS011;58098;51.680;5.134;2023-04-09T10:10:19;48.03;;;27.33;;
70545;SDS011;58098;51.680;5.134;2023-04-09T10:12:45;42.77;;;28.20;;
70545;SDS011;58098;51.680;5.134;2023-04-09T10:15:11;37.50;;;25.30;;
70545;SDS011;58098;51.680;5.134;2023-04-09T10:17:36;39.10;;;24.43;;
70545;SDS011;58098;51.680;5.134;2023-04-09T10:22:28;42.53;;;26.67;;
70545;SDS011;58098;51.680;5.134;2023-04-09T10:24:56;37.30;;;25.17;;
70545;SDS011;58098;51.680;5.134;2023-04-09T10:27:22;40.38;;;27.60;;
70545;SDS011;58098;51.680;5.134;2023-04-09T10:29:48;40.13;;;27.83;;
70545;SDS011;58098;51.680;5.134;2023-04-09T10:32:17;41.70;;;27.48;;
70545;SDS011;58098;51.680;5.134;2023-04-09T10:34:45;34.83;;;23.67;;
70545;SDS011;58098;51.680;5.134;2023-04-09T10:37:28;37.28;;;25.20;;
70545;SDS011;58098;51.680;5.134;2023-04-09T10:39:53;34.47;;;23.60;;
70545;SDS011;58098;51.680;5.134;2023-04-09T10:42:25;34.72;;;23.40;;
70545;SDS011;58098;51.680;5.134;2023-04-09T10:45:06;36.53;;;25.73;;
70545;SDS011;58098;51.680;5.134;2023-04-09T10:47:33;36.03;;;25.38;;
70545;SDS011;58098;51.680;5.134;2023-04-09T10:50:08;33.70;;;23.45;;
70545;SDS011;58098;51.680;5.134;2023-04-09T10:52:37;32.30;;;22.63;;
70545;SDS011;58098;51.680;5.134;2023-04-09T10:55:04;34.42;;;23.15;;
70545;SDS011;58098;51.680;5.134;2023-04-09T10:57:30;34.10;;;23.35;;
70545;SDS011;58098;51.680;5.134;2023-04-09T10:59:56;34.03;;;23.73;;
70545;SDS011;58098;51.680;5.134;2023-04-09T11:07:44;31.27;;;22.58;;
70545;SDS011;58098;51.680;5.134;2023-04-09T11:10:11;38.85;;;24.58;;
70545;SDS011;58098;51.680;5.134;2023-04-09T11:12:36;32.97;;;24.17;;
70545;SDS011;58098;51.680;5.134;2023-04-09T11:15:02;29.77;;;21.60;;
70545;SDS011;58098;51.680;5.134;2023-04-09T11:17:27;27.45;;;20.48;;
70545;SDS011;58098;51.680;5.134;2023-04-09T11:19:52;29.40;;;21.40;;
70545;SDS011;58098;51.680;5.134;2023-04-09T11:22:19;25.60;;;18.47;;
70545;SDS011;58098;51.680;5.134;2023-04-09T11:24:45;24.63;;;18.42;;
70545;SDS011;58098;51.680;5.134;2023-04-09T11:27:14;25.67;;;18.70;;
70545;SDS011;58098;51.680;5.134;2023-04-09T11:29:43;22.38;;;17.50;;
70545;SDS011;58098;51.680;5.134;2023-04-09T11:32:08;23.20;;;17.33;;
70545;SDS011;58098;51.680;5.134;2023-04-09T11:34:33;24.67;;;17.43;;
70545;SDS011;58098;51.680;5.134;2023-04-09T11:36:58;25.00;;;17.70;;
70545;SDS011;58098;51.680;5.134;2023-04-09T11:39:26;23.67;;;18.58;;
70545;SDS011;58098;51.680;5.134;2023-04-09T11:41:51;23.80;;;17.63;;
70545;SDS011;58098;51.680;5.134;2023-04-09T11:44:16;19.80;;;15.73;;
70545;SDS011;58098;51.680;5.134;2023-04-09T11:46:41;25.67;;;19.10;;
70545;SDS011;58098;51.680;5.134;2023-04-09T11:49:07;26.15;;;18.65;;
70545;SDS011;58098;51.680;5.134;2023-04-09T11:51:33;22.00;;;17.93;;
70545;SDS011;58098;51.680;5.134;2023-04-09T11:54:03;26.38;;;19.90;;
70545;SDS011;58098;51.680;5.134;2023-04-09T11:56:28;23.60;;;17.45;;
70545;SDS011;58098;51.680;5.134;2023-04-09T11:58:55;23.30;;;18.02;;
70545;SDS011;58098;51.680;5.134;2023-04-09T12:01:20;22.30;;;18.27;;
70545;SDS011;58098;51.680;5.134;2023-04-09T12:03:50;20.97;;;16.40;;
70545;SDS011;58098;51.680;5.134;2023-04-09T12:06:16;20.00;;;16.80;;
70545;SDS011;58098;51.680;5.134;2023-04-09T12:08:44;23.17;;;18.65;;
70545;SDS011;58098;51.680;5.134;2023-04-09T12:11:10;24.47;;;18.23;;
70545;SDS011;58098;51.680;5.134;2023-04-09T12:13:36;22.83;;;16.80;;
70545;SDS011;58098;51.680;5.134;2023-04-09T12:16:01;20.97;;;17.23;;
70545;SDS011;58098;51.680;5.134;2023-04-09T12:18:29;21.10;;;16.30;;
70545;SDS011;58098;51.680;5.134;2023-04-09T12:20:54;20.67;;;16.43;;
70545;SDS011;58098;51.680;5.134;2023-04-09T12:23:19;21.27;;;16.00;;
70545;SDS011;58098;51.680;5.134;2023-04-09T12:25:45;18.33;;;15.30;;
70545;SDS011;58098;51.680;5.134;2023-04-09T12:28:13;21.27;;;15.05;;
70545;SDS011;58098;51.680;5.134;2023-04-09T12:30:39;18.40;;;14.63;;
70545;SDS011;58098;51.680;5.134;2023-04-09T12:33:05;16.60;;;12.77;;
70545;SDS011;58098;51.680;5.134;2023-04-09T12:35:30;15.73;;;13.13;;
70545;SDS011;58098;51.680;5.134;2023-04-09T12:37:55;18.13;;;12.97;;
70545;SDS011;58098;51.680;5.134;2023-04-09T12:40:21;19.15;;;13.57;;
70545;SDS011;58098;51.680;5.134;2023-04-09T12:42:46;15.60;;;12.43;;
70545;SDS011;58098;51.680;5.134;2023-04-09T12:45:12;16.83;;;13.00;;
70545;SDS011;58098;51.680;5.134;2023-04-09T12:47:38;15.73;;;13.00;;
70545;SDS011;58098;51.680;5.134;2023-04-09T12:50:04;15.85;;;12.80;;
70545;SDS011;58098;51.680;5.134;2023-04-09T12:52:29;17.83;;;13.47;;
70545;SDS011;58098;51.680;5.134;2023-04-09T12:54:54;17.90;;;13.73;;
70545;SDS011;58098;51.680;5.134;2023-04-09T12:57:20;18.27;;;14.13;;
70545;SDS011;58098;51.680;5.134;2023-04-09T12:59:45;17.83;;;14.43;;
70545;SDS011;58098;51.680;5.134;2023-04-09T13:02:10;19.57;;;14.60;;
70545;SDS011;58098;51.680;5.134;2023-04-09T13:04:35;17.50;;;14.00;;
70545;SDS011;58098;51.680;5.134;2023-04-09T13:07:01;17.27;;;13.70;;
70545;SDS011;58098;51.680;5.134;2023-04-09T13:09:26;17.97;;;13.90;;
70545;SDS011;58098;51.680;5.134;2023-04-09T13:11:51;19.00;;;13.57;;
70545;SDS011;58098;51.680;5.134;2023-04-09T13:14:16;16.00;;;12.57;;
70545;SDS011;58098;51.680;5.134;2023-04-09T13:16:42;16.73;;;12.80;;
70545;SDS011;58098;51.680;5.134;2023-04-09T13:19:07;14.03;;;11.83;;
70545;SDS011;58098;51.680;5.134;2023-04-09T13:21:33;16.33;;;13.85;;
70545;SDS011;58098;51.680;5.134;2023-04-09T13:23:58;15.67;;;12.80;;
70545;SDS011;58098;51.680;5.134;2023-04-09T13:26:23;17.33;;;13.10;;
70545;SDS011;58098;51.680;5.134;2023-04-09T13:28:48;15.37;;;13.77;;
70545;SDS011;58098;51.680;5.134;2023-04-09T13:31:15;18.05;;;13.93;;
70545;SDS011;58098;51.680;5.134;2023-04-09T13:33:41;16.93;;;13.83;;
70545;SDS011;58098;51.680;5.134;2023-04-09T13:36:06;15.77;;;13.20;;
70545;SDS011;58098;51.680;5.134;2023-04-09T13:38:31;17.60;;;13.57;;
70545;SDS011;58098;51.680;5.134;2023-04-09T13:40:56;17.13;;;13.63;;
70545;SDS011;58098;51.680;5.134;2023-04-09T13:43:22;16.93;;;13.00;;
70545;SDS011;58098;51.680;5.134;2023-04-09T13:45:51;17.50;;;13.93;;
70545;SDS011;58098;51.680;5.134;2023-04-09T13:48:17;17.15;;;13.85;;
70545;SDS011;58098;51.680;5.134;2023-04-09T13:50:43;19.93;;;14.33;;
70545;SDS011;58098;51.680;5.134;2023-04-09T13:53:08;18.00;;;13.47;;
70545;SDS011;58098;51.680;5.134;2023-04-09T13:55:33;18.53;;;14.47;;
70545;SDS011;58098;51.680;5.134;2023-04-09T13:57:58;16.80;;;14.03;;
70545;SDS011;58098;51.680;5.134;2023-04-09T14:00:23;17.03;;;13.37;;
70545;SDS011;58098;51.680;5.134;2023-04-09T14:02:49;16.67;;;13.67;;
70545;SDS011;58098;51.680;5.134;2023-04-09T14:05:14;15.87;;;12.27;;
70545;SDS011;58098;51.680;5.134;2023-04-09T14:07:40;16.25;;;12.82;;
70545;SDS011;58098;51.680;5.134;2023-04-09T14:10:05;15.20;;;11.93;;
70545;SDS011;58098;51.680;5.134;2023-04-09T14:12:31;16.07;;;12.90;;
70545;SDS011;58098;51.680;5.134;2023-04-09T14:14:56;17.50;;;13.00;;
70545;SDS011;58098;51.680;5.134;2023-04-09T14:17:21;13.67;;;11.00;;
70545;SDS011;58098;51.680;5.134;2023-04-09T14:19:47;14.13;;;11.23;;
70545;SDS011;58098;51.680;5.134;2023-04-09T14:22:12;13.83;;;11.00;;
70545;SDS011;58098;51.680;5.134;2023-04-09T14:24:37;16.98;;;12.07;;
70545;SDS011;58098;51.680;5.134;2023-04-09T14:27:06;13.53;;;11.10;;
70545;SDS011;58098;51.680;5.134;2023-04-09T14:29:32;13.57;;;11.55;;